Time;durP1;ratioP1;P1;durP2;ratioP2;P2;SDS_P1;SDS_P2;PMS_P1;PMS_P2;Temp;Humidity;BMP_temperature;BMP_pressure;BME280_temperature;BME280_humidity;BME280_pressure;Samples;Min_cycle;Max_cycle;Signal;HPM_P1;HPM_P2
2022/11/16 00:01:03;;;;;;;25.95;16.50;;;;;;;8.72;100.00;92819.94;5109746;28;20047;-76
2022/11/16 00:03:30;;;;;;;25.50;16.98;;;;;;;8.81;100.00;92828.16;5109670;28;20085;-75
2022/11/16 00:05:58;;;;;;;26.02;15.77;;;;;;;8.77;100.00;92817.56;5081530;28;20134;-74
2022/11/16 00:08:25;;;;;;;27.38;16.70;;;;;;;8.71;100.00;92810.72;5109565;28;20492;-75
2022/11/16 00:10:52;;;;;;;24.48;16.15;;;;;;;8.82;100.00;92816.91;5109524;28;20047;-75
2022/11/16 00:13:19;;;;;;;24.38;15.60;;;;;;;8.71;100.00;92808.16;5110334;28;20051;-74
2022/11/16 00:15:54;;;;;;;24.88;16.50;;;;;;;8.85;100.00;92815.72;5113598;28;20115;-75
2022/11/16 00:18:22;;;;;;;24.67;16.15;;;;;;;8.95;100.00;92819.38;5113220;28;20159;-75
2022/11/16 00:20:49;;;;;;;24.42;15.82;;;;;;;9.00;100.00;92812.84;5113098;28;20577;-75
2022/11/16 00:23:16;;;;;;;27.27;16.77;;;;;;;9.03;100.00;92826.03;5113211;28;20941;-74
2022/11/16 00:25:43;;;;;;;28.63;17.10;;;;;;;9.04;100.00;92811.44;5112989;28;20052;-74
2022/11/16 00:28:10;;;;;;;29.85;17.88;;;;;;;9.08;100.00;92810.81;5113479;28;20096;-74
2022/11/16 00:30:37;;;;;;;26.23;16.20;;;;;;;8.98;100.00;92810.50;5104415;28;20105;-74
2022/11/16 00:33:05;;;;;;;29.23;17.83;;;;;;;8.89;100.00;92798.94;5111918;28;20140;-74
2022/11/16 00:35:38;;;;;;;28.95;18.42;;;;;;;8.93;100.00;92816.25;5113101;28;20579;-74
2022/11/16 00:38:05;;;;;;;26.83;17.70;;;;;;;8.93;100.00;92818.00;5112787;28;20046;-75
2022/11/16 00:40:32;;;;;;;31.75;18.38;;;;;;;8.91;100.00;92812.31;5101935;28;20562;-75
2022/11/16 00:42:59;;;;;;;29.60;18.13;;;;;;;8.86;100.00;92810.41;5109979;28;20048;-74
2022/11/16 00:45:26;;;;;;;29.52;19.10;;;;;;;8.81;100.00;92805.13;5113054;28;20175;-74
2022/11/16 00:47:52;;;;;;;28.40;18.38;;;;;;;8.76;100.00;92797.28;5112703;28;20560;-74
2022/11/16 00:50:19;;;;;;;28.98;18.70;;;;;;;8.77;100.00;92799.63;5113050;28;20052;-74
2022/11/16 00:52:47;;;;;;;32.25;20.27;;;;;;;8.71;100.00;92786.88;5112764;28;20100;-74
2022/11/16 00:55:14;;;;;;;32.83;20.35;;;;;;;8.66;100.00;92790.81;5084257;28;20804;-74
2022/11/16 00:57:41;;;;;;;32.53;19.63;;;;;;;8.64;100.00;92792.03;5096141;28;20057;-74
2022/11/16 01:00:09;;;;;;;33.08;20.33;;;;;;;8.59;100.00;92791.84;5100896;28;20077;-75
2022/11/16 01:02:35;;;;;;;34.22;21.73;;;;;;;8.48;100.00;92783.81;5112492;27;20047;-75
2022/11/16 01:05:02;;;;;;;33.80;21.85;;;;;;;8.37;100.00;92769.91;5112145;28;20047;-74
2022/11/16 01:07:29;;;;;;;40.53;24.98;;;;;;;8.46;100.00;92782.50;5112834;28;20423;-74
2022/11/16 01:09:57;;;;;;;33.83;21.67;;;;;;;8.41;100.00;92777.97;5112777;28;20047;-75
2022/11/16 01:12:23;;;;;;;37.88;22.90;;;;;;;8.29;100.00;92772.75;5112414;28;20047;-75
2022/11/16 01:14:49;;;;;;;34.42;20.33;;;;;;;8.25;100.00;92781.81;5112719;28;20096;-75
2022/11/16 01:17:16;;;;;;;35.97;22.73;;;;;;;8.19;100.00;92774.97;5112113;28;20051;-75
2022/11/16 01:19:43;;;;;;;39.63;23.30;;;;;;;8.11;100.00;92778.53;5112449;28;20052;-75
2022/11/16 01:22:10;;;;;;;39.90;24.70;;;;;;;8.14;100.00;92773.00;5112243;28;20455;-75
2022/11/16 01:24:37;;;;;;;37.60;23.92;;;;;;;8.11;100.00;92779.31;5112132;28;20451;-75
2022/11/16 01:27:05;;;;;;;39.50;24.83;;;;;;;8.07;100.00;92779.94;5111906;28;20081;-74
2022/11/16 01:29:32;;;;;;;38.25;23.38;;;;;;;8.01;100.00;92771.31;5112052;28;20106;-74
2022/11/16 01:31:58;;;;;;;39.15;24.45;;;;;;;8.05;100.00;92777.56;5091272;28;20052;-74
2022/11/16 01:34:25;;;;;;;39.28;24.00;;;;;;;8.06;100.00;92779.13;5105394;28;20039;-74
2022/11/16 01:36:52;;;;;;;40.92;24.92;;;;;;;8.01;100.00;92777.19;5111935;28;20040;-74
2022/11/16 01:39:19;;;;;;;39.20;24.08;;;;;;;8.01;100.00;92773.88;5112091;28;20044;-73
2022/11/16 01:41:46;;;;;;;41.22;24.90;;;;;;;7.98;100.00;92772.50;5111693;28;20664;-74
2022/11/16 01:44:54;;;;;;;40.95;24.88;;;;;;;7.98;100.00;92759.72;5112198;28;20047;-74
2022/11/16 01:47:22;;;;;;;39.42;24.02;;;;;;;7.99;100.00;92768.97;5037922;28;20125;-74
2022/11/16 01:49:52;;;;;;;37.92;23.73;;;;;;;7.97;100.00;92753.00;5105924;28;20451;-74
2022/11/16 01:52:23;;;;;;;39.88;24.45;;;;;;;7.83;100.00;92743.84;5111672;28;20499;-74
2022/11/16 01:54:52;;;;;;;38.83;23.38;;;;;;;7.91;100.00;92745.41;5086076;28;20048;-74
2022/11/16 01:57:23;;;;;;;39.25;24.27;;;;;;;7.95;100.00;92754.19;5109657;28;20085;-75
2022/11/16 01:59:53;;;;;;;38.90;24.00;;;;;;;7.95;100.00;92749.09;5111732;28;20087;-74
2022/11/16 02:02:20;;;;;;;40.10;24.65;;;;;;;7.89;100.00;92735.38;5111017;28;20092;-74
2022/11/16 02:04:50;;;;;;;37.25;23.35;;;;;;;7.90;100.00;92736.91;5111661;28;20040;-74
2022/11/16 02:07:27;;;;;;;36.60;22.98;;;;;;;7.96;100.00;92745.56;5111270;28;20085;-74
2022/11/16 02:10:09;;;;;;;36.67;23.00;;;;;;;7.92;100.00;92737.50;5111603;28;20067;-74
2022/11/16 02:13:06;;;;;;;46.65;25.48;;;;;;;7.95;100.00;92742.22;5111193;28;20059;-74
2022/11/16 02:15:40;;;;;;;38.38;23.52;;;;;;;7.77;100.00;92716.53;5110622;28;20039;-74
2022/11/16 02:18:20;;;;;;;39.45;22.88;;;;;;;7.87;100.00;92738.13;5111369;28;20048;-74
2022/11/16 02:21:01;;;;;;;47.17;25.55;;;;;;;7.87;100.00;92732.22;5098714;28;20056;-74
2022/11/16 02:24:02;;;;;;;44.03;24.60;;;;;;;7.89;100.00;92732.81;5092907;28;20043;-74
2022/11/16 02:26:47;;;;;;;45.53;25.23;;;;;;;7.86;100.00;92738.31;5111569;28;20060;-74
2022/11/16 02:29:23;;;;;;;47.65;27.08;;;;;;;7.86;100.00;92734.00;5111437;28;20044;-74
2022/11/16 02:31:58;;;;;;;46.83;26.98;;;;;;;7.85;100.00;92723.97;5110973;28;20052;-74
2022/11/16 02:34:30;;;;;;;44.90;26.42;;;;;;;7.95;100.00;92729.44;5110751;28;20092;-74
2022/11/16 02:36:59;;;;;;;45.92;24.42;;;;;;;8.04;100.00;92726.63;5110476;28;20105;-74
2022/11/16 02:39:29;;;;;;;43.22;24.67;;;;;;;8.10;100.00;92725.81;5110452;28;20047;-74
2022/11/16 02:41:59;;;;;;;41.90;23.83;;;;;;;8.13;100.00;92727.94;5110687;28;20461;-74
2022/11/16 02:44:32;;;;;;;38.97;24.42;;;;;;;8.11;100.00;92723.03;5110686;28;20043;-74
2022/11/16 02:47:03;;;;;;;41.03;24.90;;;;;;;8.13;100.00;92722.81;5110537;28;20043;-74
2022/11/16 02:49:34;;;;;;;37.10;22.60;;;;;;;8.12;100.00;92723.81;5110686;28;20047;-74
2022/11/16 02:52:01;;;;;;;37.33;21.95;;;;;;;8.19;100.00;92728.91;5110386;28;20097;-74
2022/11/16 02:54:28;;;;;;;38.42;21.85;;;;;;;7.96;100.00;92695.19;5091374;28;20049;-74
2022/11/16 02:56:57;;;;;;;37.97;22.23;;;;;;;8.06;100.00;92714.41;5101720;28;20429;-74
2022/11/16 02:59:29;;;;;;;37.25;22.38;;;;;;;8.06;100.00;92720.31;5110447;28;20051;-73
2022/11/16 03:02:03;;;;;;;39.03;22.35;;;;;;;8.15;100.00;92723.44;5110490;28;20105;-74
2022/11/16 03:04:36;;;;;;;39.05;22.52;;;;;;;8.14;100.00;92725.19;5110525;28;20043;-74
2022/11/16 03:07:06;;;;;;;34.78;22.02;;;;;;;8.13;100.00;92720.28;5110280;28;20572;-74
2022/11/16 03:09:36;;;;;;;36.90;22.27;;;;;;;8.12;100.00;92722.06;5110508;28;20111;-74
2022/11/16 03:12:07;;;;;;;35.58;22.83;;;;;;;7.99;100.00;92699.91;5110167;28;20112;-74
2022/11/16 03:14:41;;;;;;;40.15;22.50;;;;;;;8.07;100.00;92715.97;5110291;28;20064;-74
2022/11/16 03:17:14;;;;;;;37.35;23.17;;;;;;;8.12;100.00;92713.59;5109881;28;20101;-74
2022/11/16 03:19:44;;;;;;;40.60;24.60;;;;;;;8.14;100.00;92712.41;5110419;28;20451;-73
2022/11/16 03:22:14;;;;;;;37.85;23.30;;;;;;;8.13;100.00;92713.38;5109696;28;20047;-74
2022/11/16 03:24:42;;;;;;;45.63;25.38;;;;;;;8.08;100.00;92710.66;5110070;28;20039;-74
2022/11/16 03:27:15;;;;;;;35.92;22.90;;;;;;;8.11;100.00;92712.78;5109941;28;20085;-74
2022/11/16 03:29:55;;;;;;;38.80;22.27;;;;;;;8.13;100.00;92710.03;5109783;28;20048;-74
2022/11/16 03:32:28;;;;;;;39.80;22.90;;;;;;;8.10;100.00;92701.00;5109869;28;20108;-74
2022/11/16 03:35:03;;;;;;;39.92;22.98;;;;;;;8.00;100.00;92687.88;5109882;28;20501;-74
2022/11/16 03:37:32;;;;;;;38.05;23.08;;;;;;;8.14;100.00;92698.81;5110268;28;20104;-74
2022/11/16 03:40:01;;;;;;;37.78;23.40;;;;;;;8.09;100.00;92696.09;5110004;28;20370;-74
2022/11/16 03:42:29;;;;;;;40.80;24.58;;;;;;;8.09;100.00;92686.66;5096762;28;20048;-74
2022/11/16 03:44:58;;;;;;;41.60;25.00;;;;;;;8.08;100.00;92694.53;5103898;28;20044;-74
2022/11/16 03:47:25;;;;;;;44.17;25.98;;;;;;;8.07;100.00;92693.75;5102105;28;20043;-74
2022/11/16 03:49:51;;;;;;;46.20;25.88;;;;;;;8.13;100.00;92689.56;5113776;28;20073;-74
2022/11/16 03:52:19;;;;;;;45.00;24.42;;;;;;;8.11;100.00;92691.56;5114334;28;20443;-74
2022/11/16 03:54:45;;;;;;;46.88;26.30;;;;;;;8.13;100.00;92692.13;5089645;28;20052;-74
2022/11/16 03:57:16;;;;;;;48.80;27.40;;;;;;;8.17;100.00;92690.72;5109878;28;20117;-73
2022/11/16 03:59:44;;;;;;;42.92;23.98;;;;;;;8.08;100.00;92681.72;5113614;28;20096;-73
2022/11/16 04:02:12;;;;;;;41.90;25.45;;;;;;;8.07;100.00;92688.63;5113486;28;20075;-73
2022/11/16 04:29:19;;;;;;;38.47;22.63;;;;;;;8.14;100.00;92651.00;5090945;28;20513;-74
2022/11/16 04:40:00;;;;;;;44.97;24.75;;;;;;;8.21;100.00;92670.63;5113196;28;19927;-74
2022/11/16 04:42:27;;;;;;;46.28;26.02;;;;;;;8.19;100.00;92670.84;5113293;28;20123;-74
2022/11/16 04:47:38;;;;;;;42.75;24.80;;;;;;;8.09;100.00;92665.38;5113068;28;20058;-74
2022/11/16 04:50:07;;;;;;;42.28;25.52;;;;;;;8.13;100.00;92664.78;5112788;28;20052;-74
2022/11/16 04:52:34;;;;;;;43.00;24.33;;;;;;;8.11;100.00;92666.75;5113175;28;20458;-74
2022/11/16 04:55:00;;;;;;;41.20;25.25;;;;;;;8.17;100.00;92667.72;5084267;28;20311;-74
2022/11/16 04:57:27;;;;;;;43.60;24.02;;;;;;;8.21;100.00;92668.06;5071607;28;20060;-73
2022/11/16 04:59:54;;;;;;;38.85;22.95;;;;;;;8.11;100.00;92661.63;5070974;28;20048;-73
2022/11/16 05:02:22;;;;;;;42.50;23.42;;;;;;;8.11;100.00;92664.19;5071506;28;20048;-74
2022/11/16 05:04:49;;;;;;;38.97;23.60;;;;;;;8.16;100.00;92656.69;5071599;28;20051;-74
2022/11/16 05:07:17;;;;;;;38.63;23.00;;;;;;;8.13;100.00;92662.22;5071698;28;20463;-72
2022/11/16 05:09:46;;;;;;;39.88;23.98;;;;;;;8.10;100.00;92649.84;5071569;28;20451;-73
2022/11/16 05:12:15;;;;;;;43.30;23.80;;;;;;;8.13;100.00;92658.88;5071746;28;20049;-73
2022/11/16 05:14:42;;;;;;;43.78;24.23;;;;;;;8.12;100.00;92653.00;5071456;28;20201;-72
2022/11/16 05:17:09;;;;;;;40.42;25.02;;;;;;;8.15;100.00;92647.44;5071310;28;20084;-73
2022/11/16 05:22:21;;;;;;;46.15;25.13;;;;;;;8.22;100.00;92652.53;5071382;28;20139;-73
2022/11/16 05:24:48;;;;;;;41.58;24.73;;;;;;;8.24;100.00;92657.44;5070619;28;20086;-73
2022/11/16 05:27:17;;;;;;;44.28;23.83;;;;;;;8.15;100.00;92626.97;5071423;28;20045;-72
2022/11/16 05:29:44;;;;;;;46.97;24.60;;;;;;;8.26;100.00;92647.75;5071277;28;20106;-72
2022/11/16 05:32:12;;;;;;;40.60;24.58;;;;;;;8.25;100.00;92651.31;5071329;28;20102;-74
2022/11/16 05:34:39;;;;;;;42.70;24.45;;;;;;;8.27;100.00;92647.56;5071216;28;20045;-74
2022/11/16 05:37:06;;;;;;;42.38;26.55;;;;;;;8.32;100.00;92652.03;5070859;28;20048;-74
2022/11/16 05:39:34;;;;;;;41.00;24.35;;;;;;;8.12;100.00;92624.84;5070963;28;20094;-73
2022/11/16 05:42:01;;;;;;;42.15;24.95;;;;;;;8.36;100.00;92654.97;5071140;28;20182;-74
2022/11/16 05:44:28;;;;;;;40.55;24.90;;;;;;;8.36;100.00;92657.53;5070950;28;20056;-74
2022/11/16 05:46:55;;;;;;;39.10;23.90;;;;;;;8.36;100.00;92653.19;5070718;28;20056;-72
2022/11/16 05:49:22;;;;;;;38.85;24.73;;;;;;;8.42;100.00;92661.81;5070892;28;20044;-73
2022/11/16 05:51:49;;;;;;;38.47;22.52;;;;;;;8.40;100.00;92651.00;5070518;28;20086;-73
2022/11/16 05:54:18;;;;;;;39.38;22.33;;;;;;;8.22;100.00;92644.84;5076566;28;20039;-73
2022/11/16 05:56:47;;;;;;;44.15;24.95;;;;;;;8.29;100.00;92655.81;5090622;28;20052;-73
2022/11/16 05:59:15;;;;;;;39.78;23.67;;;;;;;8.28;100.00;92651.69;5091019;28;20052;-73
2022/11/16 06:01:41;;;;;;;45.25;24.38;;;;;;;8.27;100.00;92655.25;5090455;28;20443;-74
2022/11/16 06:04:09;;;;;;;38.25;22.92;;;;;;;8.25;100.00;92662.31;5090944;28;20093;-74
2022/11/16 06:06:35;;;;;;;39.38;24.52;;;;;;;8.27;100.00;92657.00;5090896;28;20095;-74
2022/11/16 06:09:03;;;;;;;39.97;23.58;;;;;;;8.19;100.00;92644.47;5090410;28;20622;-74
2022/11/16 06:11:29;;;;;;;42.35;23.92;;;;;;;8.27;100.00;92655.25;5090130;28;20036;-74
2022/11/16 06:13:57;;;;;;;43.67;23.38;;;;;;;8.29;100.00;92660.91;5090375;28;20040;-74
2022/11/16 06:16:24;;;;;;;42.10;22.05;;;;;;;8.26;100.00;92658.00;5083406;28;20060;-74
2022/11/16 06:18:51;;;;;;;36.65;22.67;;;;;;;8.27;100.00;92655.25;5088980;28;20048;-74
2022/11/16 06:21:19;;;;;;;35.30;21.85;;;;;;;8.28;100.00;92653.44;5090182;28;20048;-74
2022/11/16 06:23:46;;;;;;;36.80;21.90;;;;;;;8.26;100.00;92655.44;5090251;28;20122;-74
2022/11/16 06:26:13;;;;;;;36.95;22.83;;;;;;;8.14;100.00;92638.22;5090376;28;20056;-74
2022/11/16 06:28:40;;;;;;;40.30;23.83;;;;;;;8.30;100.00;92654.03;5090546;28;20052;-73
2022/11/16 06:31:08;;;;;;;38.55;22.88;;;;;;;8.33;100.00;92648.47;5090024;28;20040;-73
2022/11/16 06:33:34;;;;;;;40.17;24.13;;;;;;;8.16;100.00;92625.22;5089752;28;20047;-73
2022/11/16 06:36:01;;;;;;;35.05;21.80;;;;;;;8.39;100.00;92657.13;5089991;28;20043;-72
2022/11/16 06:38:28;;;;;;;38.22;22.88;;;;;;;8.41;100.00;92652.56;5090153;28;20044;-73
2022/11/16 06:40:57;;;;;;;34.58;21.92;;;;;;;8.29;100.00;92632.78;5090102;28;20051;-73
2022/11/16 06:43:24;;;;;;;33.42;20.13;;;;;;;8.35;100.00;92650.84;5089393;28;20093;-72
2022/11/16 06:45:53;;;;;;;34.47;20.50;;;;;;;8.31;100.00;92647.91;5089801;28;20527;-73
2022/11/16 06:48:22;;;;;;;31.10;18.95;;;;;;;8.35;100.00;92650.84;5089796;28;20048;-74
2022/11/16 06:50:52;;;;;;;34.40;20.80;;;;;;;8.36;100.00;92654.97;5078910;28;20489;-74
2022/11/16 06:53:19;;;;;;;41.88;22.13;;;;;;;8.42;100.00;92651.56;5069548;28;20070;-74
2022/11/16 06:55:46;;;;;;;33.20;21.00;;;;;;;8.46;100.00;92645.03;5087690;28;20044;-73
2022/11/16 06:58:12;;;;;;;42.90;24.98;;;;;;;8.54;100.00;92644.81;5089633;28;20093;-74
2022/11/16 07:00:39;;;;;;;36.33;22.58;;;;;;;8.64;100.00;92656.34;5089898;28;20451;-74
2022/11/16 07:03:06;;;;;;;46.67;24.95;;;;;;;8.63;100.00;92641.97;5089340;28;20444;-74
2022/11/16 07:05:34;;;;;;;37.63;21.88;;;;;;;8.55;100.00;92643.03;5089972;28;20105;-74
2022/11/16 07:08:01;;;;;;;35.63;21.80;;;;;;;8.65;100.00;92660.44;5089731;28;20072;-73
2022/11/16 07:10:28;;;;;;;35.28;20.10;;;;;;;8.59;100.00;92659.53;5089608;28;20047;-73
2022/11/16 07:12:54;;;;;;;37.08;22.42;;;;;;;8.60;100.00;92661.09;5089560;28;20921;-74
2022/11/16 07:15:21;;;;;;;52.13;32.22;;;;;;;8.65;100.00;92650.22;5089367;28;20496;-74
2022/11/16 07:17:48;;;;;;;35.80;21.27;;;;;;;8.66;100.00;92660.25;5089289;28;20048;-73
2022/11/16 07:20:15;;;;;;;96.85;63.28;;;;;;;8.68;100.00;92655.72;5088983;28;20502;-74
2022/11/16 07:22:43;;;;;;;41.00;25.13;;;;;;;8.66;100.00;92657.69;5089016;28;20421;-74
2022/11/16 07:25:10;;;;;;;38.08;21.45;;;;;;;8.66;100.00;92654.34;5089532;28;20140;-75
2022/11/16 07:27:36;;;;;;;61.70;33.95;;;;;;;8.68;100.00;92649.81;5089066;28;20427;-75
2022/11/16 07:30:04;;;;;;;35.67;20.45;;;;;;;8.67;100.00;92653.34;5089061;28;20040;-74
2022/11/16 07:32:31;;;;;;;62.65;31.23;;;;;;;8.71;100.00;92646.03;5089060;28;20505;-73
2022/11/16 07:34:57;;;;;;;33.33;20.10;;;;;;;8.68;100.00;92642.13;5089356;28;20077;-74
2022/11/16 07:37:24;;;;;;;39.00;24.13;;;;;;;8.70;100.00;92637.56;5089073;28;20416;-73
2022/11/16 07:39:52;;;;;;;33.30;19.33;;;;;;;8.77;100.00;92638.28;5089183;28;20075;-74
2022/11/16 07:42:19;;;;;;;31.48;19.38;;;;;;;8.79;100.00;92645.75;5088851;28;20093;-75
2022/11/16 07:44:46;;;;;;;36.13;22.45;;;;;;;8.88;100.00;92648.84;5089081;28;20378;-72
2022/11/16 07:47:12;;;;;;;37.17;20.83;;;;;;;8.92;100.00;92634.59;5089173;28;20067;-73
2022/11/16 07:49:39;;;;;;;34.55;21.42;;;;;;;9.02;100.00;92634.88;5089014;28;20044;-74
2022/11/16 07:52:08;;;;;;;33.60;19.27;;;;;;;9.03;100.00;92638.22;5088902;28;20047;-74
2022/11/16 07:54:35;;;;;;;31.63;19.90;;;;;;;9.19;100.00;92637.66;5089129;28;20101;-75
2022/11/16 07:57:03;;;;;;;35.92;19.80;;;;;;;9.36;100.00;92639.63;5106205;28;20561;-75
2022/11/16 07:59:30;;;;;;;60.75;32.53;;;;;;;9.39;100.00;92634.06;5109524;28;20112;-74
2022/11/16 08:01:57;;;;;;;39.42;22.67;;;;;;;9.53;100.00;92639.03;5109394;28;20562;-74
2022/11/16 08:04:24;;;;;;;45.10;24.38;;;;;;;9.60;100.00;92632.03;5109274;28;20589;-74
2022/11/16 08:06:51;;;;;;;37.40;21.45;;;;;;;9.67;100.00;92640.41;5109731;28;20047;-74
2022/11/16 08:09:18;;;;;;;43.33;23.63;;;;;;;9.67;100.00;92637.09;5103645;28;20501;-74
2022/11/16 08:11:45;;;;;;;56.78;27.60;;;;;;;9.70;100.00;92626.38;5101329;28;20059;-75
2022/11/16 08:14:14;;;;;;;47.65;24.45;;;;;;;9.80;100.00;92624.06;5099559;28;20473;-74
2022/11/16 08:16:41;;;;;;;45.30;25.75;;;;;;;9.86;100.00;92627.56;5092964;28;20067;-74
2022/11/16 08:19:07;;;;;;;39.75;23.05;;;;;;;9.83;100.00;92623.63;5106122;28;20051;-74
2022/11/16 08:21:34;;;;;;;42.97;25.80;;;;;;;9.95;100.00;92621.09;5100685;28;20085;-74
2022/11/16 08:24:01;;;;;;;32.17;18.88;;;;;;;10.03;100.00;92623.34;5075660;28;20567;-74
2022/11/16 08:26:28;;;;;;;33.63;19.05;;;;;;;10.07;100.00;92618.56;5109611;28;20105;-74
2022/11/16 08:28:55;;;;;;;30.98;18.98;;;;;;;10.05;100.00;92612.88;5109387;28;20530;-74
2022/11/16 08:31:26;;;;;;;36.22;22.23;;;;;;;10.08;100.00;92607.28;5109061;28;20048;-74
2022/11/16 08:33:53;;;;;;;43.72;25.45;;;;;;;10.29;100.00;92613.66;5109810;28;20048;-74
2022/11/16 08:36:20;;;;;;;33.00;21.17;;;;;;;10.40;100.00;92613.88;5113233;28;20451;-74
2022/11/16 08:38:48;;;;;;;42.90;25.00;;;;;;;10.50;100.00;92618.50;5113560;28;20467;-74
2022/11/16 08:41:16;;;;;;;30.33;18.08;;;;;;;10.52;100.00;92612.13;5113158;28;20140;-74
2022/11/16 08:43:43;;;;;;;27.48;18.02;;;;;;;10.52;100.00;92621.63;5113222;28;20051;-74
2022/11/16 08:46:11;;;;;;;45.53;28.67;;;;;;;10.60;100.00;92613.56;5112467;28;20417;-74
2022/11/16 08:48:39;;;;;;;32.90;19.40;;;;;;;10.59;100.00;92614.59;5105596;28;20109;-74
2022/11/16 08:51:07;;;;;;;33.55;19.42;;;;;;;10.58;100.00;92610.47;5106401;28;20496;-74
2022/11/16 08:53:34;;;;;;;58.85;27.48;;;;;;;10.56;100.00;92613.25;5108527;28;20147;-74
2022/11/16 08:56:04;;;;;;;66.93;34.47;;;;;;;10.64;100.00;92616.50;5089132;28;20055;-74
2022/11/16 08:58:31;;;;;;;39.13;22.00;;;;;;;10.71;100.00;92618.94;5113210;28;20059;-74
2022/11/16 09:00:58;;;;;;;29.00;18.60;;;;;;;10.60;100.00;92600.75;5112906;28;20040;-75
2022/11/16 09:03:24;;;;;;;28.67;17.05;;;;;;;10.71;100.00;92618.94;5112515;28;20055;-74
2022/11/16 09:05:52;;;;;;;45.47;23.13;;;;;;;10.63;100.00;92610.56;5112883;28;20044;-74
2022/11/16 09:08:19;;;;;;;24.90;15.20;;;;;;;10.59;100.00;92604.31;5112799;28;20108;-74
2022/11/16 09:10:46;;;;;;;26.52;14.27;;;;;;;10.51;100.00;92591.81;5112620;28;20044;-74
2022/11/16 09:13:12;;;;;;;23.40;13.50;;;;;;;10.43;100.00;92600.66;5112483;28;20459;-74
2022/11/16 09:15:39;;;;;;;60.70;31.40;;;;;;;10.65;100.00;92595.72;5112596;28;20051;-74
2022/11/16 09:18:06;;;;;;;51.45;24.98;;;;;;;10.84;100.00;92582.75;5112189;28;20051;-74
2022/11/16 09:20:32;;;;;;;29.35;17.55;;;;;;;11.03;100.00;92585.16;5112143;28;20497;-74
2022/11/16 09:23:01;;;;;;;46.25;23.13;;;;;;;11.20;100.00;92587.81;5112569;28;20047;-74
2022/11/16 09:25:27;;;;;;;39.80;20.00;;;;;;;11.36;100.00;92574.19;5112631;28;20050;-74
2022/11/16 09:27:55;;;;;;;53.42;25.13;;;;;;;11.54;100.00;92587.91;5112070;28;20719;-74
2022/11/16 09:30:22;;;;;;;30.60;17.80;;;;;;;11.62;100.00;92576.47;5112237;27;20052;-74
2022/11/16 09:32:48;;;;;;;22.75;14.20;;;;;;;11.57;100.00;92577.13;5112340;28;20040;-74
2022/11/16 09:35:16;;;;;;;35.42;16.85;;;;;;;11.69;100.00;92566.78;5112130;28;20966;-74
2022/11/16 09:37:43;;;;;;;37.78;19.15;;;;;;;11.93;100.00;92560.75;5111930;28;20058;-74
2022/11/16 09:40:12;;;;;;;24.25;14.57;;;;;;;11.91;100.00;92545.53;5112161;28;20052;-74
2022/11/16 09:42:52;;;;;;;24.20;12.75;;;;;;;12.04;100.00;92565.06;5112087;28;20092;-74
2022/11/16 09:45:24;;;;;;;49.95;21.98;;;;;;;11.90;100.00;92546.53;5111734;28;20047;-74
2022/11/16 09:47:56;;;;;;;102.55;42.83;;;;;;;11.71;100.00;92533.13;5083286;28;20098;-71
2022/11/16 09:50:35;;;;;;;30.35;15.88;;;;;;;11.74;100.00;92538.56;5097261;28;20055;-74
2022/11/16 09:53:14;;;;;;;36.90;18.50;;;;;;;11.66;100.00;92528.66;5111453;28;20059;-72
2022/11/16 09:55:47;;;;;;;33.42;17.35;;;;;;;11.55;100.00;92525.16;5082935;28;20504;-72
2022/11/16 09:58:17;;;;;;;178.10;74.82;;;;;;;11.65;100.00;92506.53;5111913;28;20055;-72
2022/11/16 10:00:51;;;;;;;72.57;33.78;;;;;;;11.79;100.00;92507.00;5111584;28;20423;-74
2022/11/16 10:03:18;;;;;;;25.75;14.15;;;;;;;11.73;100.00;92505.34;5111632;28;20512;-72
2022/11/16 10:05:51;;;;;;;43.05;20.92;;;;;;;11.77;100.00;92502.06;5111489;28;20043;-72
2022/11/16 10:08:26;;;;;;;40.72;19.25;;;;;;;11.87;100.00;92495.53;5111740;28;20051;-73
2022/11/16 10:11:01;;;;;;;52.83;24.60;;;;;;;11.83;100.00;92481.56;5111683;28;20036;-73
2022/11/16 10:13:37;;;;;;;;;;;;;;;11.91;100.00;92486.34;5112535;28;20047;-73
2022/11/16 10:16:06;;;;;;;;;;;;;;;11.97;100.00;92482.81;5111813;28;19920;-73
2022/11/16 10:18:45;;;;;;;52.92;25.08;;;;;;;12.06;100.00;92467.78;5111607;28;19923;-73
2022/11/16 10:21:33;;;;;;;18.23;11.23;;;;;;;12.18;100.00;92457.38;5111033;28;20069;-72
2022/11/16 10:24:24;;;;;;;66.30;29.20;;;;;;;12.41;100.00;92456.38;5111240;28;20052;-73
2022/11/16 10:26:59;;;;;;;29.42;16.98;;;;;;;12.52;100.00;92452.13;5111358;28;20116;-73
2022/11/16 10:29:38;;;;;;;58.13;27.38;;;;;;;12.52;100.00;92438.47;5111100;28;20051;-74
2022/11/16 10:32:16;;;;;;;35.17;19.33;;;;;;;12.60;100.00;92458.66;5111127;28;20108;-75
2022/11/16 10:34:50;;;;;;;27.65;15.48;;;;;;;12.58;100.00;92447.81;5110622;28;20089;-73
2022/11/16 10:37:17;;;;;;;82.70;45.25;;;;;;;12.74;100.00;92453.91;5111117;28;20447;-73
2022/11/16 10:39:46;;;;;;;38.83;21.23;;;;;;;12.80;100.00;92452.16;5110654;28;20093;-72
2022/11/16 10:42:19;;;;;;;33.65;18.40;;;;;;;12.77;100.00;92456.00;5110696;28;20490;-72
2022/11/16 10:44:51;;;;;;;24.00;13.68;;;;;;;12.79;100.00;92455.75;5110523;28;20124;-72
2022/11/16 10:47:23;;;;;;;20.67;12.77;;;;;;;12.77;100.00;92442.34;5110864;28;20055;-72
2022/11/16 10:49:56;;;;;;;16.50;10.27;;;;;;;12.73;100.00;92451.56;5110764;28;20136;-72
2022/11/16 10:52:24;;;;;;;13.98;8.82;;;;;;;12.64;100.00;92443.50;5110669;28;20126;-72
2022/11/16 10:54:50;;;;;;;19.48;13.88;;;;;;;12.69;100.00;92436.59;5085066;28;20090;-73
2022/11/16 10:57:19;;;;;;;17.58;11.18;;;;;;;12.86;100.00;92437.53;5107393;28;20055;-73
2022/11/16 10:59:47;;;;;;;18.77;12.70;;;;;;;12.90;100.00;92436.00;5110591;28;20047;-72
2022/11/16 11:02:30;;;;;;;15.63;10.32;;;;;;;12.81;100.00;92430.53;5110434;28;20039;-72
2022/11/16 11:05:06;;;;;;;18.42;10.52;;;;;;;12.73;100.00;92424.00;5110429;28;20123;-72
2022/11/16 11:07:36;;;;;;;19.63;11.45;;;;;;;12.60;100.00;92394.25;5110728;28;20098;-72
2022/11/16 11:10:04;;;;;;;22.90;12.30;;;;;;;12.72;100.00;92413.94;5110399;28;20054;-72
2022/11/16 11:12:37;;;;;;;21.77;13.77;;;;;;;12.70;100.00;92404.63;5110355;28;20097;-74
2022/11/16 11:15:21;;;;;;;18.73;12.43;;;;;;;12.76;100.00;92408.06;5109856;28;20127;-75
2022/11/16 11:17:50;;;;;;;20.00;12.48;;;;;;;12.75;100.00;92403.94;5110028;28;20079;-74
2022/11/16 11:20:23;;;;;;;24.08;11.82;;;;;;;12.72;100.00;92403.66;5110320;28;20079;-74
2022/11/16 11:22:54;;;;;;;25.55;14.82;;;;;;;12.72;100.00;92401.81;5110268;28;20051;-75
2022/11/16 11:25:24;;;;;;;140.40;68.53;;;;;;;12.74;100.00;92404.16;5110223;28;20451;-75
2022/11/16 11:28:04;;;;;;;41.33;21.85;;;;;;;12.63;100.00;92380.88;5109985;28;20092;-74
2022/11/16 11:30:31;;;;;;;129.13;65.50;;;;;;;12.66;100.00;92382.97;5109984;28;20543;-73
2022/11/16 11:32:58;;;;;;;189.10;95.63;;;;;;;12.67;100.00;92378.59;5110113;28;20397;-73
2022/11/16 11:35:28;;;;;;;34.47;18.38;;;;;;;12.51;100.00;92372.50;5109731;28;20051;-72
2022/11/16 11:37:57;;;;;;;39.45;22.05;;;;;;;12.39;100.00;92370.84;5109828;28;20051;-72
2022/11/16 11:40:25;;;;;;;36.38;20.48;;;;;;;12.28;100.00;92364.78;5109892;28;20051;-72
2022/11/16 11:42:57;;;;;;;31.92;19.02;;;;;;;12.27;100.00;92373.53;5107584;28;20561;-73
2022/11/16 11:45:31;;;;;;;28.20;15.70;;;;;;;12.09;100.00;92368.69;5098600;28;20394;-72
2022/11/16 11:48:01;;;;;;;23.70;12.30;;;;;;;12.02;100.00;92369.63;5109208;28;20055;-72
2022/11/16 11:50:45;;;;;;;24.25;13.43;;;;;;;11.90;100.00;92356.09;5109886;28;20069;-72
2022/11/16 11:53:21;;;;;;;24.88;14.45;;;;;;;11.93;100.00;92368.47;5109895;28;20408;-72
2022/11/16 11:55:48;;;;;;;;;;;;;;;12.00;100.00;92366.50;5083134;28;20130;-72
2022/11/16 11:58:20;;;;;;;20.73;14.55;;;;;;;11.89;100.00;92360.47;5109923;28;19928;-72
2022/11/16 12:00:57;;;;;;;18.88;11.80;;;;;;;11.90;100.00;92361.25;5109997;28;20066;-72
2022/11/16 12:03:52;;;;;;;19.13;11.80;;;;;;;11.83;100.00;92363.19;5109475;28;20079;-72